Time;durP1;ratioP1;P1;durP2;ratioP2;P2;SDS_P1;SDS_P2;PMS_P1;PMS_P2;Temp;Humidity;BMP_temperature;BMP_pressure;BME280_temperature;BME280_humidity;BME280_pressure;Samples;Min_cycle;Max_cycle;Signal;HPM_P1;HPM_P2
2022/11/25 00:06:43;;;;;;;41.65;21.52;;;;;;;3.58;79.94;100169.81;30744090;28;97081;-63
2022/11/25 00:21:44;;;;;;;47.80;23.58;;;;;;;3.62;79.45;100166.81;30743012;28;96866;-64
2022/11/25 00:36:44;;;;;;;50.95;24.60;;;;;;;3.77;79.63;100175.25;30740745;28;96735;-63
2022/11/25 00:51:45;;;;;;;47.58;23.98;;;;;;;3.76;79.45;100183.28;30739985;28;97521;-64
2022/11/25 01:06:45;;;;;;;40.83;21.67;;;;;;;3.80;79.77;100180.28;30738446;28;96637;-64
2022/11/25 01:21:46;;;;;;;49.60;23.98;;;;;;;3.83;79.95;100184.47;30737165;28;97324;-65
2022/11/25 01:36:47;;;;;;;48.72;24.00;;;;;;;3.90;79.82;100180.34;30736331;28;97091;-63
2022/11/25 01:51:54;;;;;;;52.53;27.27;;;;;;;3.80;79.37;100184.69;30734243;28;97357;-67
2022/11/25 02:07:02;;;;;;;58.08;31.40;;;;;;;3.62;79.84;100179.16;30732267;28;96655;-65
2022/11/25 02:22:06;;;;;;;66.88;34.60;;;;;;;3.64;79.97;100179.88;30731989;28;97060;-63
2022/11/25 02:37:07;;;;;;;80.72;35.03;;;;;;;3.32;79.30;100189.44;30730978;28;97531;-64
2022/11/25 02:52:07;;;;;;;72.70;32.78;;;;;;;3.20;80.16;100198.31;30729342;28;97445;-63
2022/11/25 03:07:08;;;;;;;73.30;33.50;;;;;;;3.16;80.05;100202.16;30747134;28;97337;-63
2022/11/25 03:22:08;;;;;;;80.47;36.90;;;;;;;3.37;80.79;100216.22;30748775;28;96684;-63
2022/11/25 03:37:09;;;;;;;80.05;42.20;;;;;;;3.52;80.78;100208.03;30746887;28;96823;-65
2022/11/25 03:52:09;;;;;;;65.80;36.30;;;;;;;3.64;80.39;100222.03;30744059;28;96683;-63
2022/11/25 04:07:10;;;;;;;72.88;37.00;;;;;;;3.80;80.08;100221.59;30742079;28;96812;-63
2022/11/25 04:22:10;;;;;;;76.05;35.95;;;;;;;3.70;79.67;100227.63;30742487;28;96774;-63
2022/11/25 04:37:11;;;;;;;73.60;36.88;;;;;;;3.52;80.14;100223.84;30740510;28;96713;-64
2022/11/25 04:52:11;;;;;;;67.53;37.22;;;;;;;3.60;80.80;100231.97;30739114;28;97607;-63
2022/11/25 05:07:13;;;;;;;73.72;37.50;;;;;;;3.78;80.49;100237.53;30735886;28;96839;-63
2022/11/25 05:22:16;;;;;;;68.03;36.05;;;;;;;3.89;80.46;100231.38;30773893;28;97366;-63
2022/11/25 05:37:16;;;;;;;72.18;37.15;;;;;;;3.77;80.36;100264.00;30774396;28;97010;-63
2022/11/25 05:52:17;;;;;;;69.75;35.97;;;;;;;3.91;80.38;100279.56;30804167;28;97820;-60
2022/11/25 06:07:17;;;;;;;64.05;34.55;;;;;;;3.95;80.30;100291.53;30855399;28;97345;-70
2022/11/25 06:22:18;;;;;;;61.63;34.35;;;;;;;4.04;80.45;100287.28;30846727;28;97020;-64
2022/11/25 06:37:18;;;;;;;60.78;32.80;;;;;;;3.99;79.81;100311.41;30855038;28;97131;-63
2022/11/25 06:52:18;;;;;;;57.28;31.65;;;;;;;4.04;80.48;100306.56;30870109;28;97791;-64
2022/11/25 07:07:19;;;;;;;65.03;32.08;;;;;;;4.08;80.31;100312.44;30873014;28;97577;-65
2022/11/25 07:22:19;;;;;;;69.32;32.70;;;;;;;4.02;80.16;100334.03;30860355;28;97264;-66
2022/11/25 07:37:20;;;;;;;72.95;34.58;;;;;;;4.00;80.25;100333.31;30828652;28;98366;-66
2022/11/25 07:52:20;;;;;;;79.53;39.05;;;;;;;4.23;80.97;100337.53;30858910;28;97178;-67
2022/11/25 08:07:20;;;;;;;77.78;35.60;;;;;;;4.45;80.80;100342.88;30837513;28;96726;-66
2022/11/25 08:22:21;;;;;;;89.35;39.08;;;;;;;4.51;80.99;100352.91;30834240;28;97294;-66
2022/11/25 08:37:21;;;;;;;80.57;34.83;;;;;;;4.66;81.15;100349.00;30851552;28;97309;-68
2022/11/25 08:52:22;;;;;;;87.60;32.45;;;;;;;6.20;82.15;100368.44;30853071;28;96710;-62
2022/11/25 09:07:22;;;;;;;51.30;26.17;;;;;;;7.52;80.44;100378.41;30856860;28;96753;-65
2022/11/25 09:22:23;;;;;;;60.92;26.60;;;;;;;7.58;79.05;100386.63;30852958;28;96769;-64
2022/11/25 09:37:23;;;;;;;47.60;24.08;;;;;;;10.82;79.36;100374.25;30852791;28;97014;-65
2022/11/25 09:52:44;;;;;;;44.20;22.35;;;;;;;12.72;71.52;100372.66;30846951;28;97474;-64
2022/11/25 10:07:52;;;;;;;38.90;21.93;;;;;;;10.37;71.25;100362.25;30847689;28;96775;-65
2022/11/25 10:22:58;;;;;;;41.80;21.80;;;;;;;9.52;71.26;100364.97;30959218;28;98150;-66
2022/11/25 10:38:02;;;;;;;32.73;18.67;;;;;;;9.87;72.02;100369.28;30953449;28;98316;-66
2022/11/25 10:53:13;;;;;;;24.40;14.67;;;;;;;9.71;70.64;100375.34;30819690;28;97089;-75
2022/11/25 11:08:23;;;;;;;24.10;13.57;;;;;;;9.34;71.95;100384.47;30844001;28;97402;-66
2022/11/25 11:23:24;;;;;;;25.77;13.93;;;;;;;9.13;71.79;100382.19;30855124;28;96974;-63
2022/11/25 11:38:32;;;;;;;21.97;13.70;;;;;;;9.72;72.30;100366.38;30864832;28;96934;-62
2022/11/25 11:53:41;;;;;;;27.80;13.37;;;;;;;9.54;71.58;100376.28;30839173;28;96755;-66
2022/11/25 12:08:41;;;;;;;26.23;13.80;;;;;;;9.11;71.54;100373.53;30801537;28;97306;-65
2022/11/25 12:24:20;;;;;;;22.90;13.15;;;;;;;8.87;71.96;100363.56;30780818;28;97278;-66
2022/11/25 12:39:31;;;;;;;24.83;15.03;;;;;;;8.73;72.21;100363.13;30778341;28;96840;-67
2022/11/25 12:54:48;;;;;;;25.80;15.27;;;;;;;8.26;72.21;100371.31;30844543;28;97369;-65
2022/11/25 13:09:57;;;;;;;25.33;14.93;;;;;;;8.16;72.17;100373.19;30848319;28;97040;-66
2022/11/25 13:24:58;;;;;;;21.33;12.73;;;;;;;8.12;72.92;100372.69;30853623;28;97113;-67
2022/11/25 13:40:20;;;;;;;25.10;12.43;;;;;;;8.14;72.91;100386.63;30850837;28;97400;-66
2022/11/25 13:55:29;;;;;;;25.50;13.33;;;;;;;8.01;72.88;100384.34;30849566;28;97152;-68
2022/11/25 14:10:58;;;;;;;20.83;12.27;;;;;;;7.77;73.69;100396.31;30771025;28;97244;-66
2022/11/25 14:26:17;;;;;;;24.30;12.33;;;;;;;7.70;73.96;100405.84;30896926;28;97823;-64
2022/11/25 14:41:22;;;;;;;20.03;11.77;;;;;;;7.59;74.26;100401.56;30971504;28;97041;-65
2022/11/25 14:56:28;;;;;;;20.57;10.13;;;;;;;7.56;74.52;100422.22;30960207;28;96908;-65
2022/11/25 15:11:32;;;;;;;16.63;9.87;;;;;;;7.41;74.03;100435.94;30866793;28;96936;-64
2022/11/25 15:26:33;;;;;;;;;;;;;;;7.35;74.50;100433.03;30863414;28;96849;-66
2022/11/25 15:41:35;;;;;;;31.40;15.97;;;;;;;7.24;74.55;100434.84;30865487;28;96689;-66
2022/11/25 15:56:38;;;;;;;40.53;18.57;;;;;;;7.20;74.84;100440.59;30862995;28;96531;-63
2022/11/25 16:11:44;;;;;;;41.13;21.20;;;;;;;7.17;75.33;100446.19;30861668;28;96773;-69
2022/11/25 16:26:52;;;;;;;40.10;21.43;;;;;;;7.05;75.06;100458.75;30852254;28;97137;-69
2022/11/25 16:41:57;;;;;;;38.67;21.97;;;;;;;6.95;75.59;100454.28;30848006;28;98636;-66
2022/11/25 16:56:58;;;;;;;42.87;23.47;;;;;;;6.67;74.98;100466.56;30732262;28;96873;-69
2022/11/25 17:11:59;;;;;;;54.33;28.70;;;;;;;6.53;76.08;100467.78;30725731;28;97147;-68
2022/11/25 17:27:03;;;;;;;36.10;19.05;;;;;;;6.34;75.74;100483.63;30721350;28;97372;-68
2022/11/25 17:42:04;;;;;;;24.70;16.30;;;;;;;6.27;76.19;100480.66;30734672;28;96708;-67
2022/11/25 17:57:09;;;;;;;31.60;14.82;;;;;;;6.00;75.23;100489.22;30732041;28;96816;-67
2022/11/25 18:12:24;;;;;;;26.65;13.45;;;;;;;5.30;75.56;100495.06;30728060;28;96669;-66
2022/11/25 18:27:26;;;;;;;25.17;13.75;;;;;;;4.95;75.59;100496.22;30734880;28;96711;-67
2022/11/25 18:42:27;;;;;;;33.15;14.60;;;;;;;4.54;75.83;100517.06;30748235;28;96680;-67
2022/11/25 18:57:27;;;;;;;39.28;15.80;;;;;;;4.15;75.94;100543.00;30748677;28;96595;-67
2022/11/25 19:12:28;;;;;;;28.35;14.88;;;;;;;3.79;76.27;100542.28;30747532;28;97269;-69
2022/11/25 19:27:32;;;;;;;32.95;17.02;;;;;;;3.44;76.72;100552.84;30747763;28;97485;-68
2022/11/25 19:42:33;;;;;;;42.17;20.33;;;;;;;3.28;77.50;100559.28;30744690;28;96726;-70
2022/11/25 19:57:33;;;;;;;28.85;15.85;;;;;;;3.09;77.50;100572.09;30741459;28;96717;-70
2022/11/25 20:12:34;;;;;;;58.30;27.25;;;;;;;2.87;77.94;100576.28;30836255;28;96982;-67
2022/11/25 20:27:34;;;;;;;68.88;35.33;;;;;;;2.75;78.74;100595.59;30845403;28;97186;-64
2022/11/25 20:42:35;;;;;;;51.10;27.63;;;;;;;2.63;78.51;100616.56;30843199;28;97345;-65
2022/11/25 20:57:36;;;;;;;54.15;29.25;;;;;;;2.64;79.14;100635.84;30844689;28;97351;-65
2022/11/25 21:12:36;;;;;;;92.72;46.95;;;;;;;2.53;78.84;100650.56;30846634;28;98000;-66
2022/11/25 21:27:37;;;;;;;76.50;39.63;;;;;;;2.57;79.59;100659.09;30843189;28;97142;-65
2022/11/25 21:42:37;;;;;;;60.92;31.95;;;;;;;2.50;80.03;100669.19;30841414;28;97334;-65
2022/11/25 21:57:38;;;;;;;60.83;32.38;;;;;;;2.54;80.25;100688.22;30837890;28;97119;-66
2022/11/25 22:12:41;;;;;;;61.58;32.05;;;;;;;2.81;79.92;100689.88;30841020;28;97018;-66
2022/11/25 22:27:44;;;;;;;61.80;31.42;;;;;;;3.01;80.21;100689.31;30839848;28;97255;-65
2022/11/25 22:42:48;;;;;;;52.55;29.92;;;;;;;2.98;79.85;100691.31;30836110;28;97063;-64
2022/11/25 22:57:49;;;;;;;53.93;32.63;;;;;;;2.98;78.67;100699.22;30795855;28;97346;-65
2022/11/25 23:12:50;;;;;;;81.80;39.88;;;;;;;2.47;78.89;100731.69;30721756;28;96805;-65
2022/11/25 23:27:50;;;;;;;62.28;34.35;;;;;;;2.29;79.51;100723.25;30747787;28;96755;-65
2022/11/25 23:42:52;;;;;;;58.22;33.10;;;;;;;2.19;80.21;100738.81;30741053;28;97377;-65
2022/11/25 23:57:52;;;;;;;51.60;27.85;;;;;;;2.39;80.88;100744.50;30751718;28;96984;-65
